createdAt,value
2022-07-26T00:04:58.851Z,97392.50
2022-07-26T00:10:00.932Z,97419.25
2022-07-26T00:15:03.446Z,97418.16
2022-07-26T00:20:05.921Z,97421.41
2022-07-26T00:25:09.700Z,97411.69
2022-07-26T00:30:12.102Z,97423.19
2022-07-26T00:35:14.594Z,97433.28
2022-07-26T00:40:16.895Z,97444.78
2022-07-26T00:45:19.007Z,97449.25
2022-07-26T00:50:20.882Z,97444.53
2022-07-26T00:55:22.907Z,97425.78
2022-07-26T01:00:28.623Z,97432.00
2022-07-26T01:05:30.624Z,97434.31
2022-07-26T01:10:32.630Z,97451.34
2022-07-26T01:15:34.506Z,97454.75
2022-07-26T01:20:36.717Z,97449.81
2022-07-26T01:25:43.348Z,97453.81
2022-07-26T01:30:45.690Z,97437.91
2022-07-26T01:35:47.860Z,97439.97
2022-07-26T01:40:49.725Z,97450.44
2022-07-26T01:45:52.662Z,97450.88
2022-07-26T01:50:54.655Z,97430.44
2022-07-26T01:55:56.533Z,97428.84
2022-07-26T02:00:58.329Z,97434.94
2022-07-26T02:06:03.076Z,97426.19
2022-07-26T02:11:05.491Z,97431.72
2022-07-26T02:16:13.563Z,97428.28
2022-07-26T02:21:15.484Z,97440.09
2022-07-26T02:26:17.389Z,97435.06
2022-07-26T02:31:19.292Z,97455.31
2022-07-26T02:36:22.617Z,97448.34
2022-07-26T02:41:24.849Z,97448.97
2022-07-26T02:46:26.839Z,97454.31
2022-07-26T02:51:29.126Z,97457.94
2022-07-26T02:56:31.099Z,97458.31
2022-07-26T03:01:35.353Z,97456.88
2022-07-26T03:06:37.365Z,97463.53
2022-07-26T03:11:39.215Z,97466.06
2022-07-26T03:16:42.655Z,97467.22
2022-07-26T03:21:44.448Z,97467.28
2022-07-26T03:26:46.260Z,97460.19
2022-07-26T03:31:48.302Z,97459.25
2022-07-26T03:36:50.172Z,97454.22
2022-07-26T03:41:52.066Z,97445.53
2022-07-26T03:46:53.901Z,97453.31
2022-07-26T03:51:55.781Z,97459.63
2022-07-26T03:56:57.699Z,97455.50
2022-07-26T04:01:59.616Z,97475.50
2022-07-26T04:07:03.794Z,97473.69
2022-07-26T04:12:06.263Z,97473.09
2022-07-26T04:17:08.172Z,97483.22
2022-07-26T04:22:10.089Z,97492.53
2022-07-26T04:27:11.963Z,97486.78
2022-07-26T04:32:13.761Z,97490.63
2022-07-26T04:37:15.594Z,97479.19
2022-07-26T04:42:17.506Z,97481.75
2022-07-26T04:47:19.331Z,97496.50
2022-07-26T04:52:21.166Z,97507.38
2022-07-26T04:57:23.650Z,97508.72
2022-07-26T05:02:25.670Z,97509.84
2022-07-26T05:07:27.616Z,97518.41
2022-07-26T05:12:29.440Z,97514.03
2022-07-26T05:17:31.465Z,97517.25
2022-07-26T05:22:37.911Z,97524.94
2022-07-26T05:27:41.846Z,97521.56
2022-07-26T05:32:43.717Z,97515.84
2022-07-26T05:37:45.636Z,97519.44
2022-07-26T05:42:47.507Z,97528.09
2022-07-26T05:47:50.634Z,97525.94
2022-07-26T05:52:52.550Z,97537.53
2022-07-26T05:57:54.405Z,97537.81
2022-07-26T06:02:56.351Z,97539.59
2022-07-26T06:07:58.199Z,97537.72
2022-07-26T06:13:00.764Z,97542.19
2022-07-26T06:18:02.695Z,97548.63
2022-07-26T06:23:05.161Z,97548.31
2022-07-26T06:28:09.190Z,97540.50
2022-07-26T06:33:11.872Z,97548.19
2022-07-26T06:38:13.809Z,97549.25
2022-07-26T06:43:15.697Z,97550.91
2022-07-26T06:48:17.562Z,97552.97
2022-07-26T06:53:19.530Z,97545.28
2022-07-26T06:58:21.482Z,97545.41
2022-07-26T07:03:23.447Z,97543.94
2022-07-26T07:08:25.314Z,97549.69
2022-07-26T07:13:27.167Z,97554.13
2022-07-26T07:18:29.178Z,97554.50
2022-07-26T07:23:30.980Z,97547.19
2022-07-26T07:28:34.250Z,97546.06
2022-07-26T07:33:52.600Z,97558.19
2022-07-26T07:38:55.520Z,97552.44
2022-07-26T07:43:58.505Z,97558.78
2022-07-26T07:49:00.619Z,97550.94
2022-07-26T07:54:05.672Z,97544.16
2022-07-26T07:59:08.178Z,97541.06
2022-07-26T08:04:10.248Z,97542.47
2022-07-26T08:09:13.311Z,97539.97
2022-07-26T08:14:15.428Z,97544.84
2022-07-26T08:19:19.786Z,97544.69
2022-07-26T08:24:24.484Z,97550.00
2022-07-26T08:29:26.380Z,97536.53
2022-07-26T08:34:28.248Z,97543.13
2022-07-26T08:39:30.142Z,97548.47
2022-07-26T08:44:32.008Z,97554.34
2022-07-26T08:49:34.101Z,97545.88
2022-07-26T08:54:36.258Z,97558.28
2022-07-26T08:59:39.103Z,97555.59
2022-07-26T09:04:45.088Z,97560.97
2022-07-26T09:10:11.415Z,97570.00
2022-07-26T09:15:20.546Z,97555.75
2022-07-26T09:20:30.549Z,97576.69
2022-07-26T09:25:44.246Z,97574.88
2022-07-26T09:30:55.720Z,97569.13
2022-07-26T09:36:05.314Z,97576.72
2022-07-26T09:41:28.111Z,97577.69
2022-07-26T09:46:32.207Z,97583.13
2022-07-26T09:51:42.745Z,97587.53
2022-07-26T09:56:52.158Z,97583.44
2022-07-26T10:01:57.435Z,97589.09
2022-07-26T10:06:59.414Z,97584.84
2022-07-26T10:12:07.113Z,97590.97
2022-07-26T10:17:29.036Z,97589.28
2022-07-26T10:22:47.248Z,97600.72
2022-07-26T10:27:58.942Z,97598.03
2022-07-26T10:33:10.203Z,97601.03
2022-07-26T10:38:23.591Z,97587.63
2022-07-26T10:43:42.751Z,97598.06
2022-07-26T10:49:04.348Z,97585.22
2022-07-26T10:54:11.288Z,97590.19
2022-07-26T10:59:13.517Z,97595.63
2022-07-26T11:04:22.747Z,97593.88
2022-07-26T11:09:34.188Z,97595.84
2022-07-26T11:14:35.978Z,97582.94
2022-07-26T11:19:41.220Z,97607.19
2022-07-26T11:24:44.254Z,97610.59
2022-07-26T11:29:52.292Z,97602.69
2022-07-26T11:35:05.168Z,97604.31
2022-07-26T11:40:07.469Z,97595.38
2022-07-26T11:45:12.682Z,97598.63
2022-07-26T11:50:22.244Z,97590.47
2022-07-26T11:55:29.295Z,97592.44
2022-07-26T12:00:31.180Z,97592.63
2022-07-26T12:05:34.059Z,97582.72
2022-07-26T12:10:36.283Z,97589.88
2022-07-26T12:15:52.463Z,97588.44
2022-07-26T12:21:03.619Z,97591.19
2022-07-26T12:26:27.118Z,97588.84
2022-07-26T12:31:34.203Z,97586.81
2022-07-26T12:36:36.417Z,97587.31
2022-07-26T12:41:40.346Z,97588.19
2022-07-26T12:46:45.075Z,97577.66
2022-07-26T12:51:47.058Z,97565.16
2022-07-26T12:56:48.885Z,97580.50
2022-07-26T13:01:51.515Z,97570.03
2022-07-26T13:06:53.341Z,97562.72
2022-07-26T13:11:56.422Z,97566.66
2022-07-26T13:16:58.335Z,97572.03
2022-07-26T13:22:01.574Z,97586.56
2022-07-26T13:27:05.240Z,97574.84
2022-07-26T13:32:07.179Z,97575.00
2022-07-26T13:37:09.022Z,97575.00
2022-07-26T13:42:11.377Z,97578.50
2022-07-26T13:47:13.263Z,97582.22
2022-07-26T13:52:16.766Z,97589.56
2022-07-26T13:57:18.903Z,97594.72
2022-07-26T14:02:20.932Z,97595.16
2022-07-26T14:07:22.782Z,97603.75
2022-07-26T14:12:24.602Z,97595.44
2022-07-26T14:17:26.423Z,97607.84
2022-07-26T14:22:28.324Z,97600.72
2022-07-26T14:27:30.118Z,97605.28
2022-07-26T14:32:32.115Z,97598.75
2022-07-26T14:37:44.121Z,97602.78
2022-07-26T14:42:47.392Z,97620.38
2022-07-26T14:47:49.248Z,97611.34
2022-07-26T14:52:51.121Z,97621.03
2022-07-26T14:57:53.154Z,97621.59
2022-07-26T15:02:55.092Z,97607.84
2022-07-26T15:07:57.154Z,97611.28
2022-07-26T15:13:00.722Z,97606.63
2022-07-26T15:18:02.580Z,97604.00
2022-07-26T15:23:06.229Z,97591.88
2022-07-26T15:28:10.610Z,97598.41
2022-07-26T15:33:14.454Z,97601.09
2022-07-26T15:38:16.474Z,97607.63
2022-07-26T15:43:23.933Z,97615.31
2022-07-26T15:48:45.155Z,97615.94
2022-07-26T15:53:47.048Z,97622.94
2022-07-26T15:58:48.905Z,97623.22
2022-07-26T16:03:50.862Z,97620.53
2022-07-26T16:09:15.322Z,97627.47
2022-07-26T16:14:15.367Z,97630.16
2022-07-26T16:19:17.331Z,97634.78
2022-07-26T16:24:19.396Z,97633.16
2022-07-26T16:29:21.269Z,97626.63
2022-07-26T16:34:23.279Z,97631.69
2022-07-26T16:39:25.066Z,97641.81
2022-07-26T16:44:26.885Z,97642.34
2022-07-26T16:49:28.782Z,97653.75
2022-07-26T16:54:31.287Z,97659.72
2022-07-26T16:59:33.324Z,97659.13
2022-07-26T17:04:36.199Z,97658.25
2022-07-26T17:09:38.019Z,97655.97
2022-07-26T17:14:39.843Z,97662.44
2022-07-26T17:19:41.647Z,97671.22
2022-07-26T17:24:43.459Z,97668.00
2022-07-26T17:29:45.324Z,97666.13
2022-07-26T17:34:47.989Z,97677.03
2022-07-26T17:39:53.361Z,97686.16
2022-07-26T17:44:56.117Z,97684.72
2022-07-26T17:55:24.918Z,97689.88
2022-07-26T18:00:28.832Z,97684.28
2022-07-26T18:05:36.101Z,97695.69
2022-07-26T18:10:41.376Z,97696.81
2022-07-26T18:15:43.194Z,97696.59
2022-07-26T18:20:45.631Z,97692.84
2022-07-26T18:25:47.625Z,97697.84
2022-07-26T18:30:49.466Z,97700.06
2022-07-26T18:35:51.307Z,97693.25
2022-07-26T18:40:53.265Z,97698.13
2022-07-26T18:45:55.068Z,97698.09
2022-07-26T18:50:57.055Z,97705.19
2022-07-26T18:55:58.950Z,97711.59
2022-07-26T19:01:00.751Z,97721.66
2022-07-26T19:06:02.899Z,97715.38
2022-07-26T19:11:04.941Z,97719.97
2022-07-26T19:16:06.819Z,97724.69
2022-07-26T19:21:08.684Z,97725.13
2022-07-26T19:26:11.887Z,97727.19
2022-07-26T19:31:13.736Z,97727.75
2022-07-26T19:36:18.048Z,97733.00
2022-07-26T19:41:28.074Z,97740.19
2022-07-26T19:46:29.923Z,97740.84
2022-07-26T19:51:32.233Z,97743.91
2022-07-26T19:56:34.212Z,97749.34
2022-07-26T20:01:36.109Z,97760.50
2022-07-26T20:06:37.932Z,97758.59
2022-07-26T20:11:39.955Z,97754.09
2022-07-26T20:16:41.875Z,97764.22
2022-07-26T20:21:49.894Z,97766.44
2022-07-26T20:26:51.829Z,97762.13
2022-07-26T20:31:53.650Z,97775.72
2022-07-26T20:36:55.467Z,97770.50
2022-07-26T20:41:57.385Z,97773.59
2022-07-26T20:46:59.245Z,97771.78
2022-07-26T20:52:04.403Z,97775.22
2022-07-26T20:57:06.296Z,97775.44
2022-07-26T21:02:08.813Z,97779.25
2022-07-26T21:07:10.689Z,97786.81
2022-07-26T21:12:12.505Z,97788.69
2022-07-26T21:17:14.633Z,97791.34
2022-07-26T21:22:16.499Z,97794.56
2022-07-26T21:27:18.563Z,97792.72
2022-07-26T21:32:20.412Z,97795.75
2022-07-26T21:37:22.270Z,97799.16
2022-07-26T21:42:26.669Z,97799.38
2022-07-26T21:47:28.789Z,97808.56
2022-07-26T21:52:30.583Z,97805.28
2022-07-26T21:57:32.474Z,97805.50
2022-07-26T22:02:34.768Z,97813.31
2022-07-26T22:07:36.609Z,97808.84
2022-07-26T22:12:38.392Z,97814.34
2022-07-26T22:17:40.504Z,97810.47
2022-07-26T22:22:42.340Z,97812.38
2022-07-26T22:27:44.163Z,97812.38
2022-07-26T22:32:46.083Z,97816.66
2022-07-26T22:37:47.915Z,97828.03
2022-07-26T22:42:50.101Z,97823.56
2022-07-26T22:47:55.660Z,97831.75
2022-07-26T22:52:58.578Z,97821.50
2022-07-26T22:58:01.007Z,97828.09
2022-07-26T23:03:02.804Z,97820.41
2022-07-26T23:08:18.330Z,97816.28
2022-07-26T23:13:26.819Z,97824.81
2022-07-26T23:18:29.995Z,97822.69
2022-07-26T23:23:32.069Z,97818.13
2022-07-26T23:28:36.797Z,97826.69
2022-07-26T23:33:51.585Z,97822.66
2022-07-26T23:38:57.534Z,97834.69
2022-07-26T23:43:59.387Z,97822.03
2022-07-26T23:49:01.287Z,97819.66
2022-07-26T23:54:03.232Z,97816.22
2022-07-26T23:59:05.586Z,97812.94
